Diana, New York
Current Conditions -  °F | °C
As of 9:58 PM on Sunday 23 Nov 2014 (Local Time) from KGTB Reporting Station
Scattered Clouds Scattered Clouds  
Wind Chill: 37°   Ceiling: Unl
Heat Index: 44°   Visibility: 10mi
Dew Point: 36°   Wind: 16mph
Humidity: 73%   Direction: 150°SSE
Pressure: 29.84"   Gusts: NA
Location:  44.1447°N, 75.2952°W
Report Text: KGTB 240258Z AUTO 15014KT 10SM SCT180 07/02 A2984 RMK AO2 SLP110 T00670021 57025
Loading
Personal Weather Stations






























Interactive Weather Map New forecast layout! Learn more

10-Day Weather Forecast

Advertisements
Track Severe Weather on mobile